sensor_id;sensor_type;location;lat;lon;timestamp;P1;durP1;ratioP1;P2;durP2;ratioP2
55655;SDS011;41530;52.382;5.270;2023-04-01T00:01:26;2.92;;;0.90;;
55655;SDS011;41530;52.382;5.270;2023-04-01T00:03:53;6.13;;;1.40;;
55655;SDS011;41530;52.382;5.270;2023-04-01T00:06:20;5.88;;;1.40;;
55655;SDS011;41530;52.382;5.270;2023-04-01T00:08:47;4.90;;;1.40;;
55655;SDS011;41530;52.382;5.270;2023-04-01T00:11:14;4.30;;;1.15;;
55655;SDS011;41530;52.382;5.270;2023-04-01T00:13:45;5.18;;;1.20;;
55655;SDS011;41530;52.382;5.270;2023-04-01T00:16:17;6.13;;;1.52;;
55655;SDS011;41530;52.382;5.270;2023-04-01T00:18:50;4.22;;;1.48;;
55655;SDS011;41530;52.382;5.270;2023-04-01T00:21:24;6.22;;;1.80;;
55655;SDS011;41530;52.382;5.270;2023-04-01T00:23:51;9.82;;;1.63;;
55655;SDS011;41530;52.382;5.270;2023-04-01T00:26:23;6.68;;;2.05;;
55655;SDS011;41530;52.382;5.270;2023-04-01T00:28:51;4.60;;;1.45;;
55655;SDS011;41530;52.382;5.270;2023-04-01T00:31:28;7.07;;;1.85;;
55655;SDS011;41530;52.382;5.270;2023-04-01T00:33:58;7.80;;;1.92;;
55655;SDS011;41530;52.382;5.270;2023-04-01T00:36:28;6.22;;;1.75;;
55655;SDS011;41530;52.382;5.270;2023-04-01T00:38:57;8.50;;;1.65;;
55655;SDS011;41530;52.382;5.270;2023-04-01T00:41:29;6.55;;;1.55;;
55655;SDS011;41530;52.382;5.270;2023-04-01T00:47:00;7.32;;;1.70;;
55655;SDS011;41530;52.382;5.270;2023-04-01T00:49:31;8.90;;;2.25;;
55655;SDS011;41530;52.382;5.270;2023-04-01T00:52:05;5.63;;;1.80;;
55655;SDS011;41530;52.382;5.270;2023-04-01T00:54:34;6.80;;;1.60;;
55655;SDS011;41530;52.382;5.270;2023-04-01T00:57:25;8.07;;;1.67;;
55655;SDS011;41530;52.382;5.270;2023-04-01T00:59:54;7.18;;;1.83;;
55655;SDS011;41530;52.382;5.270;2023-04-01T01:02:30;4.82;;;1.73;;
55655;SDS011;41530;52.382;5.270;2023-04-01T01:04:59;6.97;;;2.00;;
55655;SDS011;41530;52.382;5.270;2023-04-01T01:10:17;6.28;;;2.10;;
55655;SDS011;41530;52.382;5.270;2023-04-01T01:12:56;8.50;;;2.35;;
55655;SDS011;41530;52.382;5.270;2023-04-01T01:15:32;6.00;;;1.90;;
55655;SDS011;41530;52.382;5.270;2023-04-01T01:18:15;7.97;;;2.28;;
55655;SDS011;41530;52.382;5.270;2023-04-01T01:24:13;8.52;;;2.17;;
55655;SDS011;41530;52.382;5.270;2023-04-01T01:38:03;6.07;;;1.92;;
55655;SDS011;41530;52.382;5.270;2023-04-01T01:40:41;6.53;;;1.88;;
55655;SDS011;41530;52.382;5.270;2023-04-01T01:43:11;4.68;;;1.58;;
55655;SDS011;41530;52.382;5.270;2023-04-01T01:45:46;6.68;;;1.90;;
55655;SDS011;41530;52.382;5.270;2023-04-01T01:48:16;6.40;;;1.90;;
55655;SDS011;41530;52.382;5.270;2023-04-01T01:50:46;4.78;;;1.65;;
55655;SDS011;41530;52.382;5.270;2023-04-01T01:53:14;5.15;;;1.52;;
55655;SDS011;41530;52.382;5.270;2023-04-01T01:55:43;5.88;;;1.65;;
55655;SDS011;41530;52.382;5.270;2023-04-01T01:58:12;5.10;;;1.60;;
55655;SDS011;41530;52.382;5.270;2023-04-01T02:00:49;3.83;;;1.40;;
55655;SDS011;41530;52.382;5.270;2023-04-01T02:03:19;5.20;;;1.73;;
55655;SDS011;41530;52.382;5.270;2023-04-01T02:05:49;4.32;;;1.45;;
55655;SDS011;41530;52.382;5.270;2023-04-01T02:08:20;5.55;;;1.23;;
55655;SDS011;41530;52.382;5.270;2023-04-01T02:11:01;4.13;;;1.58;;
55655;SDS011;41530;52.382;5.270;2023-04-01T02:13:34;6.75;;;1.23;;
55655;SDS011;41530;52.382;5.270;2023-04-01T02:16:10;3.17;;;1.20;;
55655;SDS011;41530;52.382;5.270;2023-04-01T02:18:41;5.20;;;1.60;;
55655;SDS011;41530;52.382;5.270;2023-04-01T02:21:11;3.75;;;1.30;;
55655;SDS011;41530;52.382;5.270;2023-04-01T02:23:39;3.22;;;1.10;;
55655;SDS011;41530;52.382;5.270;2023-04-01T02:26:07;2.80;;;0.93;;
55655;SDS011;41530;52.382;5.270;2023-04-01T02:28:36;4.35;;;1.13;;
55655;SDS011;41530;52.382;5.270;2023-04-01T02:31:04;2.67;;;1.02;;
55655;SDS011;41530;52.382;5.270;2023-04-01T02:33:32;4.60;;;1.33;;
55655;SDS011;41530;52.382;5.270;2023-04-01T02:35:59;5.72;;;1.20;;
55655;SDS011;41530;52.382;5.270;2023-04-01T02:38:26;4.07;;;1.30;;
55655;SDS011;41530;52.382;5.270;2023-04-01T02:40:56;2.92;;;1.10;;
55655;SDS011;41530;52.382;5.270;2023-04-01T02:43:25;2.92;;;1.00;;
55655;SDS011;41530;52.382;5.270;2023-04-01T02:45:52;4.32;;;1.20;;
55655;SDS011;41530;52.382;5.270;2023-04-01T02:48:18;2.75;;;1.00;;
55655;SDS011;41530;52.382;5.270;2023-04-01T02:50:45;3.95;;;1.40;;
55655;SDS011;41530;52.382;5.270;2023-04-01T02:53:12;3.95;;;1.20;;
55655;SDS011;41530;52.382;5.270;2023-04-01T02:55:39;3.10;;;0.80;;
55655;SDS011;41530;52.382;5.270;2023-04-01T02:58:05;3.15;;;1.10;;
55655;SDS011;41530;52.382;5.270;2023-04-01T03:00:32;2.63;;;1.20;;
55655;SDS011;41530;52.382;5.270;2023-04-01T03:02:59;2.17;;;1.00;;
55655;SDS011;41530;52.382;5.270;2023-04-01T03:05:26;2.92;;;1.23;;
55655;SDS011;41530;52.382;5.270;2023-04-01T03:07:53;4.55;;;0.95;;
55655;SDS011;41530;52.382;5.270;2023-04-01T03:10:19;2.75;;;1.00;;
55655;SDS011;41530;52.382;5.270;2023-04-01T03:12:46;1.55;;;0.80;;
55655;SDS011;41530;52.382;5.270;2023-04-01T03:15:13;2.58;;;1.15;;
55655;SDS011;41530;52.382;5.270;2023-04-01T03:17:41;2.75;;;0.90;;
55655;SDS011;41530;52.382;5.270;2023-04-01T03:20:09;5.22;;;1.17;;
55655;SDS011;41530;52.382;5.270;2023-04-01T03:22:37;3.40;;;1.23;;
55655;SDS011;41530;52.382;5.270;2023-04-01T03:25:08;2.58;;;0.80;;
55655;SDS011;41530;52.382;5.270;2023-04-01T03:27:35;2.88;;;1.10;;
55655;SDS011;41530;52.382;5.270;2023-04-01T03:30:05;2.38;;;1.20;;
55655;SDS011;41530;52.382;5.270;2023-04-01T03:32:33;2.92;;;1.10;;
55655;SDS011;41530;52.382;5.270;2023-04-01T03:34:59;2.85;;;1.00;;
55655;SDS011;41530;52.382;5.270;2023-04-01T03:37:26;2.20;;;1.00;;
55655;SDS011;41530;52.382;5.270;2023-04-01T03:39:53;2.38;;;1.30;;
55655;SDS011;41530;52.382;5.270;2023-04-01T03:42:19;1.55;;;1.00;;
55655;SDS011;41530;52.382;5.270;2023-04-01T03:44:46;3.92;;;1.13;;
55655;SDS011;41530;52.382;5.270;2023-04-01T03:47:13;2.85;;;1.00;;
55655;SDS011;41530;52.382;5.270;2023-04-01T03:49:39;3.97;;;1.00;;
55655;SDS011;41530;52.382;5.270;2023-04-01T03:52:08;3.55;;;1.02;;
55655;SDS011;41530;52.382;5.270;2023-04-01T03:54:36;4.10;;;1.00;;
55655;SDS011;41530;52.382;5.270;2023-04-01T03:57:04;3.70;;;1.27;;
55655;SDS011;41530;52.382;5.270;2023-04-01T03:59:31;2.00;;;1.10;;
55655;SDS011;41530;52.382;5.270;2023-04-01T04:01:57;1.42;;;0.85;;
55655;SDS011;41530;52.382;5.270;2023-04-01T04:04:24;2.85;;;1.13;;
55655;SDS011;41530;52.382;5.270;2023-04-01T04:06:53;2.25;;;1.10;;
55655;SDS011;41530;52.382;5.270;2023-04-01T04:09:20;2.17;;;1.05;;
55655;SDS011;41530;52.382;5.270;2023-04-01T04:11:46;3.17;;;0.93;;
55655;SDS011;41530;52.382;5.270;2023-04-01T04:14:13;2.78;;;0.88;;
55655;SDS011;41530;52.382;5.270;2023-04-01T04:16:40;2.80;;;1.10;;
55655;SDS011;41530;52.382;5.270;2023-04-01T04:19:07;1.73;;;1.05;;
55655;SDS011;41530;52.382;5.270;2023-04-01T04:21:33;3.85;;;1.15;;
55655;SDS011;41530;52.382;5.270;2023-04-01T04:24:00;2.13;;;0.90;;
55655;SDS011;41530;52.382;5.270;2023-04-01T04:26:27;1.85;;;1.35;;
55655;SDS011;41530;52.382;5.270;2023-04-01T04:28:54;2.22;;;1.30;;
55655;SDS011;41530;52.382;5.270;2023-04-01T04:31:22;1.40;;;0.95;;
55655;SDS011;41530;52.382;5.270;2023-04-01T04:33:50;0.95;;;0.90;;
55655;SDS011;41530;52.382;5.270;2023-04-01T04:36:18;1.58;;;1.38;;
55655;SDS011;41530;52.382;5.270;2023-04-01T04:38:45;4.68;;;1.10;;
55655;SDS011;41530;52.382;5.270;2023-04-01T04:41:12;1.30;;;1.00;;
55655;SDS011;41530;52.382;5.270;2023-04-01T04:43:40;2.00;;;1.27;;
55655;SDS011;41530;52.382;5.270;2023-04-01T04:46:10;2.15;;;1.02;;
55655;SDS011;41530;52.382;5.270;2023-04-01T04:48:37;3.17;;;1.02;;
55655;SDS011;41530;52.382;5.270;2023-04-01T04:51:04;1.20;;;1.08;;
55655;SDS011;41530;52.382;5.270;2023-04-01T04:53:31;1.55;;;1.02;;
55655;SDS011;41530;52.382;5.270;2023-04-01T04:55:57;1.65;;;1.00;;
55655;SDS011;41530;52.382;5.270;2023-04-01T04:58:24;1.27;;;0.95;;
55655;SDS011;41530;52.382;5.270;2023-04-01T05:00:50;1.10;;;0.88;;
55655;SDS011;41530;52.382;5.270;2023-04-01T05:03:17;1.33;;;0.95;;
55655;SDS011;41530;52.382;5.270;2023-04-01T05:05:50;1.85;;;1.08;;
55655;SDS011;41530;52.382;5.270;2023-04-01T05:08:18;1.45;;;0.90;;
55655;SDS011;41530;52.382;5.270;2023-04-01T05:10:45;2.67;;;0.93;;
55655;SDS011;41530;52.382;5.270;2023-04-01T05:13:12;0.93;;;0.82;;
55655;SDS011;41530;52.382;5.270;2023-04-01T05:15:38;0.77;;;0.60;;
55655;SDS011;41530;52.382;5.270;2023-04-01T05:18:05;1.25;;;0.60;;
55655;SDS011;41530;52.382;5.270;2023-04-01T05:20:32;1.05;;;0.50;;
55655;SDS011;41530;52.382;5.270;2023-04-01T05:22:59;2.35;;;0.40;;
55655;SDS011;41530;52.382;5.270;2023-04-01T05:25:26;1.20;;;0.52;;
55655;SDS011;41530;52.382;5.270;2023-04-01T05:27:53;1.17;;;0.63;;
55655;SDS011;41530;52.382;5.270;2023-04-01T05:30:20;0.70;;;0.30;;
55655;SDS011;41530;52.382;5.270;2023-04-01T05:32:46;0.32;;;0.32;;
55655;SDS011;41530;52.382;5.270;2023-04-01T05:35:13;0.35;;;0.30;;
55655;SDS011;41530;52.382;5.270;2023-04-01T05:37:40;0.82;;;0.30;;
55655;SDS011;41530;52.382;5.270;2023-04-01T05:40:07;1.33;;;0.40;;
55655;SDS011;41530;52.382;5.270;2023-04-01T05:42:35;0.50;;;0.50;;
55655;SDS011;41530;52.382;5.270;2023-04-01T05:45:03;2.28;;;0.50;;
55655;SDS011;41530;52.382;5.270;2023-04-01T05:47:31;0.63;;;0.30;;
55655;SDS011;41530;52.382;5.270;2023-04-01T05:49:58;0.55;;;0.40;;
55655;SDS011;41530;52.382;5.270;2023-04-01T05:52:24;0.32;;;0.32;;
55655;SDS011;41530;52.382;5.270;2023-04-01T05:54:51;2.17;;;0.32;;
55655;SDS011;41530;52.382;5.270;2023-04-01T05:57:18;0.40;;;0.40;;
55655;SDS011;41530;52.382;5.270;2023-04-01T05:59:44;0.50;;;0.30;;
55655;SDS011;41530;52.382;5.270;2023-04-01T06:02:12;0.63;;;0.45;;
55655;SDS011;41530;52.382;5.270;2023-04-01T06:04:39;0.43;;;0.40;;
55655;SDS011;41530;52.382;5.270;2023-04-01T06:07:13;1.63;;;0.40;;
55655;SDS011;41530;52.382;5.270;2023-04-01T06:09:41;0.63;;;0.30;;
55655;SDS011;41530;52.382;5.270;2023-04-01T06:17:31;3.58;;;0.30;;
55655;SDS011;41530;52.382;5.270;2023-04-01T06:39:01;0.93;;;0.70;;
55655;SDS011;41530;52.382;5.270;2023-04-01T06:52:47;6.47;;;0.90;;
55655;SDS011;41530;52.382;5.270;2023-04-01T06:58:46;1.02;;;0.73;;
55655;SDS011;41530;52.382;5.270;2023-04-01T07:01:20;2.00;;;1.25;;
55655;SDS011;41530;52.382;5.270;2023-04-01T07:03:54;1.13;;;1.00;;
55655;SDS011;41530;52.382;5.270;2023-04-01T07:06:27;4.95;;;1.13;;
55655;SDS011;41530;52.382;5.270;2023-04-01T07:09:02;1.48;;;0.88;;
55655;SDS011;41530;52.382;5.270;2023-04-01T07:11:34;5.45;;;1.33;;
55655;SDS011;41530;52.382;5.270;2023-04-01T07:14:25;1.42;;;1.02;;
55655;SDS011;41530;52.382;5.270;2023-04-01T07:17:05;1.67;;;1.25;;
55655;SDS011;41530;52.382;5.270;2023-04-01T07:19:42;4.40;;;1.02;;
55655;SDS011;41530;52.382;5.270;2023-04-01T07:24:52;2.28;;;1.00;;
55655;SDS011;41530;52.382;5.270;2023-04-01T07:27:20;2.35;;;1.08;;
55655;SDS011;41530;52.382;5.270;2023-04-01T07:29:46;7.60;;;1.88;;
55655;SDS011;41530;52.382;5.270;2023-04-01T07:41:04;1.85;;;0.90;;
55655;SDS011;41530;52.382;5.270;2023-04-01T07:46:17;2.53;;;0.90;;
55655;SDS011;41530;52.382;5.270;2023-04-01T07:48:57;1.33;;;1.10;;
55655;SDS011;41530;52.382;5.270;2023-04-01T07:54:31;5.07;;;1.15;;
55655;SDS011;41530;52.382;5.270;2023-04-01T08:07:45;2.03;;;1.30;;
55655;SDS011;41530;52.382;5.270;2023-04-01T08:21:20;1.75;;;0.98;;
55655;SDS011;41530;52.382;5.270;2023-04-01T08:23:55;1.40;;;0.90;;
55655;SDS011;41530;52.382;5.270;2023-04-01T08:26:58;2.50;;;0.95;;
55655;SDS011;41530;52.382;5.270;2023-04-01T08:29:27;2.97;;;0.80;;
55655;SDS011;41530;52.382;5.270;2023-04-01T08:32:17;2.60;;;0.70;;
55655;SDS011;41530;52.382;5.270;2023-04-01T08:34:51;2.65;;;0.70;;
55655;SDS011;41530;52.382;5.270;2023-04-01T08:37:34;3.13;;;0.70;;
55655;SDS011;41530;52.382;5.270;2023-04-01T08:43:22;2.83;;;0.68;;
55655;SDS011;41530;52.382;5.270;2023-04-01T08:46:06;3.17;;;0.50;;
55655;SDS011;41530;52.382;5.270;2023-04-01T08:54:14;2.20;;;0.60;;
55655;SDS011;41530;52.382;5.270;2023-04-01T09:27:56;2.50;;;0.55;;
55655;SDS011;41530;52.382;5.270;2023-04-01T09:36:36;3.13;;;0.43;;
55655;SDS011;41530;52.382;5.270;2023-04-01T09:39:32;1.23;;;0.32;;
55655;SDS011;41530;52.382;5.270;2023-04-01T09:44:59;0.95;;;0.50;;
55655;SDS011;41530;52.382;5.270;2023-04-01T09:53:34;2.95;;;0.50;;
55655;SDS011;41530;52.382;5.270;2023-04-01T09:56:23;2.03;;;0.50;;
55655;SDS011;41530;52.382;5.270;2023-04-01T10:26:05;0.88;;;0.50;;
55655;SDS011;41530;52.382;5.270;2023-04-01T10:32:09;0.45;;;0.30;;
55655;SDS011;41530;52.382;5.270;2023-04-01T10:40:43;0.80;;;0.30;;
55655;SDS011;41530;52.382;5.270;2023-04-01T10:51:50;4.03;;;0.68;;
55655;SDS011;41530;52.382;5.270;2023-04-01T10:57:58;1.65;;;0.40;;
55655;SDS011;41530;52.382;5.270;2023-04-01T11:35:19;2.60;;;0.80;;
55655;SDS011;41530;52.382;5.270;2023-04-01T11:40:03;1.02;;;0.38;;
55655;SDS011;41530;52.382;5.270;2023-04-01T11:42:47;0.57;;;0.45;;
55655;SDS011;41530;52.382;5.270;2023-04-01T12:05:53;0.68;;;0.50;;
55655;SDS011;41530;52.382;5.270;2023-04-01T12:11:15;0.77;;;0.50;;
55655;SDS011;41530;52.382;5.270;2023-04-01T12:14:03;1.33;;;0.45;;
55655;SDS011;41530;52.382;5.270;2023-04-01T12:17:09;0.47;;;0.40;;
55655;SDS011;41530;52.382;5.270;2023-04-01T12:22:53;0.82;;;0.50;;
55655;SDS011;41530;52.382;5.270;2023-04-01T12:28:39;0.70;;;0.47;;
55655;SDS011;41530;52.382;5.270;2023-04-01T12:33:48;0.75;;;0.45;;
55655;SDS011;41530;52.382;5.270;2023-04-01T12:36:35;0.65;;;0.40;;
55655;SDS011;41530;52.382;5.270;2023-04-01T12:41:49;1.23;;;0.50;;
55655;SDS011;41530;52.382;5.270;2023-04-01T13:00:32;1.20;;;0.45;;
55655;SDS011;41530;52.382;5.270;2023-04-01T13:09:08;2.30;;;0.70;;
55655;SDS011;41530;52.382;5.270;2023-04-01T13:17:58;0.55;;;0.40;;
55655;SDS011;41530;52.382;5.270;2023-04-01T13:23:28;0.95;;;0.45;;
55655;SDS011;41530;52.382;5.270;2023-04-01T13:26:26;1.00;;;0.52;;
55655;SDS011;41530;52.382;5.270;2023-04-01T14:10:56;1.95;;;0.70;;
55655;SDS011;41530;52.382;5.270;2023-04-01T14:22:38;1.83;;;0.80;;
55655;SDS011;41530;52.382;5.270;2023-04-01T14:25:23;0.70;;;0.70;;
55655;SDS011;41530;52.382;5.270;2023-04-01T14:33:42;3.65;;;1.23;;
55655;SDS011;41530;52.382;5.270;2023-04-01T14:46:51;6.38;;;1.10;;
55655;SDS011;41530;52.382;5.270;2023-04-01T14:49:34;1.33;;;0.85;;
55655;SDS011;41530;52.382;5.270;2023-04-01T14:52:04;11.18;;;1.33;;
55655;SDS011;41530;52.382;5.270;2023-04-01T14:54:37;1.13;;;0.63;;
55655;SDS011;41530;52.382;5.270;2023-04-01T14:57:15;2.05;;;0.77;;
55655;SDS011;41530;52.382;5.270;2023-04-01T15:02:32;2.58;;;0.90;;
55655;SDS011;41530;52.382;5.270;2023-04-01T15:10:32;7.03;;;0.90;;
55655;SDS011;41530;52.382;5.270;2023-04-01T15:13:44;1.08;;;0.80;;
55655;SDS011;41530;52.382;5.270;2023-04-01T15:16:39;2.15;;;0.73;;
55655;SDS011;41530;52.382;5.270;2023-04-01T15:30:15;4.65;;;0.80;;
55655;SDS011;41530;52.382;5.270;2023-04-01T15:41:16;1.48;;;0.75;;
55655;SDS011;41530;52.382;5.270;2023-04-01T15:43:51;3.20;;;0.77;;
55655;SDS011;41530;52.382;5.270;2023-04-01T15:46:24;2.60;;;0.73;;
55655;SDS011;41530;52.382;5.270;2023-04-01T16:11:10;6.40;;;0.70;;
55655;SDS011;41530;52.382;5.270;2023-04-01T16:19:53;2.80;;;0.80;;
55655;SDS011;41530;52.382;5.270;2023-04-01T16:25:40;0.75;;;0.47;;
55655;SDS011;41530;52.382;5.270;2023-04-01T16:30:57;0.60;;;0.47;;
55655;SDS011;41530;52.382;5.270;2023-04-01T16:39:36;2.35;;;0.60;;
55655;SDS011;41530;52.382;5.270;2023-04-01T16:42:13;1.85;;;0.70;;
55655;SDS011;41530;52.382;5.270;2023-04-01T16:44:49;0.95;;;0.45;;
55655;SDS011;41530;52.382;5.270;2023-04-01T16:47:27;1.75;;;0.40;;
55655;SDS011;41530;52.382;5.270;2023-04-01T16:50:20;1.20;;;0.40;;
55655;SDS011;41530;52.382;5.270;2023-04-01T16:55:18;2.30;;;0.60;;
55655;SDS011;41530;52.382;5.270;2023-04-01T16:57:50;2.47;;;0.60;;
55655;SDS011;41530;52.382;5.270;2023-04-01T17:05:46;2.28;;;0.68;;
55655;SDS011;41530;52.382;5.270;2023-04-01T17:13:52;0.73;;;0.43;;
55655;SDS011;41530;52.382;5.270;2023-04-01T17:19:08;0.70;;;0.70;;
55655;SDS011;41530;52.382;5.270;2023-04-01T17:22:15;1.48;;;0.40;;
55655;SDS011;41530;52.382;5.270;2023-04-01T17:24:56;0.40;;;0.40;;
55655;SDS011;41530;52.382;5.270;2023-04-01T17:38:34;0.57;;;0.40;;
55655;SDS011;41530;52.382;5.270;2023-04-01T17:51:56;1.40;;;0.45;;
55655;SDS011;41530;52.382;5.270;2023-04-01T18:00:01;0.77;;;0.40;;
55655;SDS011;41530;52.382;5.270;2023-04-01T18:17:06;0.30;;;0.30;;
55655;SDS011;41530;52.382;5.270;2023-04-01T18:22:29;0.32;;;0.30;;
55655;SDS011;41530;52.382;5.270;2023-04-01T18:27:48;2.05;;;0.43;;
55655;SDS011;41530;52.382;5.270;2023-04-01T18:30:29;2.08;;;0.55;;
55655;SDS011;41530;52.382;5.270;2023-04-01T18:33:03;0.70;;;0.40;;
55655;SDS011;41530;52.382;5.270;2023-04-01T18:38:16;0.52;;;0.43;;
55655;SDS011;41530;52.382;5.270;2023-04-01T18:41:13;0.65;;;0.40;;
55655;SDS011;41530;52.382;5.270;2023-04-01T18:55:31;0.50;;;0.32;;
55655;SDS011;41530;52.382;5.270;2023-04-01T18:58:06;1.02;;;0.50;;
55655;SDS011;41530;52.382;5.270;2023-04-01T19:00:45;1.08;;;0.40;;
55655;SDS011;41530;52.382;5.270;2023-04-01T19:05:59;0.73;;;0.43;;
55655;SDS011;41530;52.382;5.270;2023-04-01T19:08:28;1.00;;;0.30;;
55655;SDS011;41530;52.382;5.270;2023-04-01T19:14:00;2.47;;;0.40;;
55655;SDS011;41530;52.382;5.270;2023-04-01T19:21:55;0.55;;;0.40;;
55655;SDS011;41530;52.382;5.270;2023-04-01T19:27:31;0.30;;;0.30;;
55655;SDS011;41530;52.382;5.270;2023-04-01T19:30:16;0.43;;;0.40;;
55655;SDS011;41530;52.382;5.270;2023-04-01T19:33:17;0.70;;;0.47;;
55655;SDS011;41530;52.382;5.270;2023-04-01T19:41:24;0.47;;;0.30;;
55655;SDS011;41530;52.382;5.270;2023-04-01T19:46:48;0.93;;;0.40;;
55655;SDS011;41530;52.382;5.270;2023-04-01T19:57:53;0.60;;;0.50;;
55655;SDS011;41530;52.382;5.270;2023-04-01T20:00:34;0.32;;;0.32;;
55655;SDS011;41530;52.382;5.270;2023-04-01T20:08:15;1.15;;;0.50;;
55655;SDS011;41530;52.382;5.270;2023-04-01T20:15:55;1.02;;;0.55;;
55655;SDS011;41530;52.382;5.270;2023-04-01T20:23:50;3.05;;;0.40;;
55655;SDS011;41530;52.382;5.270;2023-04-01T20:31:42;0.60;;;0.40;;
55655;SDS011;41530;52.382;5.270;2023-04-01T20:40:44;0.90;;;0.50;;
55655;SDS011;41530;52.382;5.270;2023-04-01T21:02:57;0.65;;;0.43;;
55655;SDS011;41530;52.382;5.270;2023-04-01T21:11:10;0.38;;;0.38;;
55655;SDS011;41530;52.382;5.270;2023-04-01T21:25:03;0.90;;;0.60;;
55655;SDS011;41530;52.382;5.270;2023-04-01T21:44:42;0.40;;;0.40;;
55655;SDS011;41530;52.382;5.270;2023-04-01T22:06:38;0.85;;;0.85;;
55655;SDS011;41530;52.382;5.270;2023-04-01T22:09:11;0.80;;;0.80;;
55655;SDS011;41530;52.382;5.270;2023-04-01T22:14:42;0.82;;;0.80;;
55655;SDS011;41530;52.382;5.270;2023-04-01T22:17:45;0.80;;;0.80;;
55655;SDS011;41530;52.382;5.270;2023-04-01T22:23:08;2.35;;;0.73;;
55655;SDS011;41530;52.382;5.270;2023-04-01T22:26:00;1.23;;;0.85;;
55655;SDS011;41530;52.382;5.270;2023-04-01T22:29:10;0.82;;;0.82;;
55655;SDS011;41530;52.382;5.270;2023-04-01T22:31:38;1.10;;;0.82;;
55655;SDS011;41530;52.382;5.270;2023-04-01T22:34:08;0.80;;;0.80;;
55655;SDS011;41530;52.382;5.270;2023-04-01T22:50:23;1.83;;;1.10;;
55655;SDS011;41530;52.382;5.270;2023-04-01T22:56:07;2.30;;;0.82;;
55655;SDS011;41530;52.382;5.270;2023-04-01T22:58:46;2.78;;;1.08;;
55655;SDS011;41530;52.382;5.270;2023-04-01T23:01:21;0.93;;;0.80;;
55655;SDS011;41530;52.382;5.270;2023-04-01T23:03:52;1.73;;;0.90;;
55655;SDS011;41530;52.382;5.270;2023-04-01T23:06:24;2.42;;;1.00;;
55655;SDS011;41530;52.382;5.270;2023-04-01T23:09:14;0.90;;;0.80;;
55655;SDS011;41530;52.382;5.270;2023-04-01T23:11:47;1.88;;;1.10;;
55655;SDS011;41530;52.382;5.270;2023-04-01T23:16:45;2.72;;;1.20;;
55655;SDS011;41530;52.382;5.270;2023-04-01T23:22:07;1.58;;;0.85;;
55655;SDS011;41530;52.382;5.270;2023-04-01T23:25:03;1.58;;;1.08;;
55655;SDS011;41530;52.382;5.270;2023-04-01T23:33:10;1.77;;;1.25;;
55655;SDS011;41530;52.382;5.270;2023-04-01T23:38:34;3.05;;;1.00;;
55655;SDS011;41530;52.382;5.270;2023-04-01T23:41:04;2.42;;;1.30;;
55655;SDS011;41530;52.382;5.270;2023-04-01T23:43:37;2.10;;;1.30;;
55655;SDS011;41530;52.382;5.270;2023-04-01T23:46:07;1.60;;;0.98;;
55655;SDS011;41530;52.382;5.270;2023-04-01T23:48:39;1.88;;;1.30;;
55655;SDS011;41530;52.382;5.270;2023-04-01T23:51:19;1.92;;;1.20;;
55655;SDS011;41530;52.382;5.270;2023-04-01T23:53:55;3.97;;;1.50;;
55655;SDS011;41530;52.382;5.270;2023-04-01T23:56:41;2.70;;;1.27;;
55655;SDS011;41530;52.382;5.270;2023-04-01T23:59:19;2.60;;;1.50;;
